sensor_id;sensor_type;location;lat;lon;timestamp;pressure;altitude;pressure_sealevel;temperature;humidity
52719;BME280;38616;42.140;24.760;2023-12-20T00:02:23;100031.59;;;5.62;67.82
52719;BME280;38616;42.140;24.760;2023-12-20T00:04:49;100027.94;;;5.68;68.47
52719;BME280;38616;42.140;24.760;2023-12-20T00:07:15;100032.06;;;5.47;68.40
52719;BME280;38616;42.140;24.760;2023-12-20T00:09:40;100024.56;;;5.61;69.08
52719;BME280;38616;42.140;24.760;2023-12-20T00:12:06;100022.69;;;5.50;68.53
52719;BME280;38616;42.140;24.760;2023-12-20T00:14:32;100023.63;;;5.43;69.08
52719;BME280;38616;42.140;24.760;2023-12-20T00:16:57;100014.38;;;5.51;68.52
52719;BME280;38616;42.140;24.760;2023-12-20T00:19:22;100012.97;;;5.37;69.57
52719;BME280;38616;42.140;24.760;2023-12-20T00:21:49;100011.94;;;5.02;70.40
52719;BME280;38616;42.140;24.760;2023-12-20T00:24:14;100022.72;;;5.26;71.16
52719;BME280;38616;42.140;24.760;2023-12-20T00:26:40;100019.19;;;5.37;69.48
52719;BME280;38616;42.140;24.760;2023-12-20T00:29:05;100020.81;;;5.38;69.39
52719;BME280;38616;42.140;24.760;2023-12-20T00:31:31;100009.94;;;5.45;68.86
52719;BME280;38616;42.140;24.760;2023-12-20T00:33:58;100016.59;;;5.54;68.25
52719;BME280;38616;42.140;24.760;2023-12-20T00:36:23;99998.22;;;5.51;67.76
52719;BME280;38616;42.140;24.760;2023-12-20T00:38:49;99989.53;;;5.49;67.97
52719;BME280;38616;42.140;24.760;2023-12-20T00:41:15;99990.34;;;5.50;68.14
52719;BME280;38616;42.140;24.760;2023-12-20T00:46:17;99985.34;;;5.82;67.36
52719;BME280;38616;42.140;24.760;2023-12-20T00:48:43;99989.06;;;5.52;67.98
52719;BME280;38616;42.140;24.760;2023-12-20T00:51:10;99982.63;;;5.53;67.72
52719;BME280;38616;42.140;24.760;2023-12-20T00:53:36;99968.47;;;5.46;67.83
52719;BME280;38616;42.140;24.760;2023-12-20T00:56:01;99970.31;;;5.45;68.28
52719;BME280;38616;42.140;24.760;2023-12-20T00:58:27;99977.81;;;5.43;68.30
52719;BME280;38616;42.140;24.760;2023-12-20T01:00:53;99972.31;;;5.38;67.98
52719;BME280;38616;42.140;24.760;2023-12-20T01:03:19;99963.88;;;5.46;68.18
52719;BME280;38616;42.140;24.760;2023-12-20T01:05:44;99964.22;;;5.50;67.64
52719;BME280;38616;42.140;24.760;2023-12-20T01:08:10;99962.72;;;5.42;67.91
52719;BME280;38616;42.140;24.760;2023-12-20T01:10:35;99955.09;;;5.51;68.01
52719;BME280;38616;42.140;24.760;2023-12-20T01:13:00;99956.63;;;5.47;67.77
52719;BME280;38616;42.140;24.760;2023-12-20T01:15:26;99951.03;;;5.25;68.00
52719;BME280;38616;42.140;24.760;2023-12-20T01:17:51;99954.09;;;5.16;68.32
52719;BME280;38616;42.140;24.760;2023-12-20T01:20:17;99940.94;;;5.32;68.20
52719;BME280;38616;42.140;24.760;2023-12-20T01:22:44;99938.75;;;5.29;67.89
52719;BME280;38616;42.140;24.760;2023-12-20T01:25:11;99934.28;;;5.35;67.61
52719;BME280;38616;42.140;24.760;2023-12-20T01:27:36;99932.50;;;5.40;67.21
52719;BME280;38616;42.140;24.760;2023-12-20T01:30:04;99919.00;;;5.40;67.28
52719;BME280;38616;42.140;24.760;2023-12-20T01:32:30;99924.97;;;5.42;67.18
52719;BME280;38616;42.140;24.760;2023-12-20T01:34:55;99924.72;;;5.56;66.75
52719;BME280;38616;42.140;24.760;2023-12-20T01:37:21;99923.56;;;5.52;66.67
52719;BME280;38616;42.140;24.760;2023-12-20T01:39:49;99922.00;;;5.68;66.59
52719;BME280;38616;42.140;24.760;2023-12-20T01:42:14;99923.66;;;5.57;66.91
52719;BME280;38616;42.140;24.760;2023-12-20T01:44:40;99921.44;;;5.54;67.18
52719;BME280;38616;42.140;24.760;2023-12-20T01:47:05;99924.72;;;5.56;66.44
52719;BME280;38616;42.140;24.760;2023-12-20T01:49:30;99923.38;;;5.29;66.97
52719;BME280;38616;42.140;24.760;2023-12-20T01:51:57;99914.28;;;5.18;67.76
52719;BME280;38616;42.140;24.760;2023-12-20T01:54:22;99916.03;;;5.25;67.77
52719;BME280;38616;42.140;24.760;2023-12-20T01:56:49;99910.56;;;4.96;68.06
52719;BME280;38616;42.140;24.760;2023-12-20T01:59:15;99908.44;;;4.62;69.10
52719;BME280;38616;42.140;24.760;2023-12-20T02:01:40;99903.41;;;4.54;69.69
52719;BME280;38616;42.140;24.760;2023-12-20T02:04:06;99899.41;;;4.44;69.44
52719;BME280;38616;42.140;24.760;2023-12-20T02:06:33;99899.88;;;4.29;70.10
52719;BME280;38616;42.140;24.760;2023-12-20T02:08:59;99889.06;;;4.18;70.93
52719;BME280;38616;42.140;24.760;2023-12-20T02:11:25;99883.25;;;4.21;70.64
52719;BME280;38616;42.140;24.760;2023-12-20T02:13:51;99877.06;;;4.32;70.16
52719;BME280;38616;42.140;24.760;2023-12-20T02:16:16;99879.88;;;4.25;69.18
52719;BME280;38616;42.140;24.760;2023-12-20T02:18:43;99883.59;;;4.24;70.00
52719;BME280;38616;42.140;24.760;2023-12-20T02:21:09;99876.47;;;4.42;69.82
52719;BME280;38616;42.140;24.760;2023-12-20T02:23:35;99876.13;;;4.50;69.39
52719;BME280;38616;42.140;24.760;2023-12-20T02:26:01;99879.88;;;4.49;69.56
52719;BME280;38616;42.140;24.760;2023-12-20T02:28:26;99875.78;;;4.58;69.17
52719;BME280;38616;42.140;24.760;2023-12-20T02:30:53;99876.72;;;4.88;68.06
52719;BME280;38616;42.140;24.760;2023-12-20T02:33:18;99860.22;;;4.84;67.88
52719;BME280;38616;42.140;24.760;2023-12-20T02:35:44;99865.47;;;4.91;67.72
52719;BME280;38616;42.140;24.760;2023-12-20T02:38:09;99862.44;;;4.87;67.44
52719;BME280;38616;42.140;24.760;2023-12-20T02:40:35;99847.44;;;5.03;67.18
52719;BME280;38616;42.140;24.760;2023-12-20T02:43:00;99857.66;;;4.90;66.94
52719;BME280;38616;42.140;24.760;2023-12-20T02:45:26;99868.19;;;4.79;67.32
52719;BME280;38616;42.140;24.760;2023-12-20T02:47:52;99862.13;;;4.84;67.20
52719;BME280;38616;42.140;24.760;2023-12-20T02:50:17;99848.16;;;4.87;67.47
52719;BME280;38616;42.140;24.760;2023-12-20T02:52:44;99844.06;;;4.84;67.31
52719;BME280;38616;42.140;24.760;2023-12-20T02:55:10;99842.94;;;4.68;66.96
52719;BME280;38616;42.140;24.760;2023-12-20T02:57:36;99841.84;;;4.57;67.66
52719;BME280;38616;42.140;24.760;2023-12-20T03:00:08;99840.34;;;4.62;68.25
52719;BME280;38616;42.140;24.760;2023-12-20T03:02:35;99845.16;;;4.71;68.19
52719;BME280;38616;42.140;24.760;2023-12-20T03:05:01;99840.81;;;4.58;68.30
52719;BME280;38616;42.140;24.760;2023-12-20T03:07:26;99839.06;;;4.64;67.76
52719;BME280;38616;42.140;24.760;2023-12-20T03:09:52;99828.53;;;4.63;67.53
52719;BME280;38616;42.140;24.760;2023-12-20T03:12:17;99831.22;;;4.63;67.70
52719;BME280;38616;42.140;24.760;2023-12-20T03:14:43;99822.44;;;4.67;67.48
52719;BME280;38616;42.140;24.760;2023-12-20T03:17:09;99825.69;;;4.81;66.72
52719;BME280;38616;42.140;24.760;2023-12-20T03:19:35;99829.81;;;4.48;68.17
52719;BME280;38616;42.140;24.760;2023-12-20T03:22:03;99829.81;;;4.36;68.52
52719;BME280;38616;42.140;24.760;2023-12-20T03:24:28;99827.13;;;4.60;68.72
52719;BME280;38616;42.140;24.760;2023-12-20T03:26:54;99827.25;;;4.41;68.52
52719;BME280;38616;42.140;24.760;2023-12-20T03:29:19;99823.25;;;4.68;68.07
52719;BME280;38616;42.140;24.760;2023-12-20T03:31:45;99822.56;;;4.72;66.99
52719;BME280;38616;42.140;24.760;2023-12-20T03:34:11;99828.06;;;4.78;66.67
52719;BME280;38616;42.140;24.760;2023-12-20T03:36:37;99824.19;;;4.73;67.12
52719;BME280;38616;42.140;24.760;2023-12-20T03:39:02;99822.44;;;4.67;67.04
52719;BME280;38616;42.140;24.760;2023-12-20T03:41:28;99819.28;;;4.58;66.94
52719;BME280;38616;42.140;24.760;2023-12-20T03:43:53;99812.16;;;4.64;67.64
52719;BME280;38616;42.140;24.760;2023-12-20T03:46:19;99800.41;;;4.82;66.48
52719;BME280;38616;42.140;24.760;2023-12-20T03:48:44;99806.41;;;4.72;66.72
52719;BME280;38616;42.140;24.760;2023-12-20T03:51:10;99813.31;;;4.56;67.23
52719;BME280;38616;42.140;24.760;2023-12-20T03:53:35;99805.03;;;4.58;67.58
52719;BME280;38616;42.140;24.760;2023-12-20T03:56:01;99816.38;;;4.60;67.41
52719;BME280;38616;42.140;24.760;2023-12-20T03:58:26;99819.41;;;4.52;67.54
52719;BME280;38616;42.140;24.760;2023-12-20T04:00:53;99810.78;;;4.38;67.72
52719;BME280;38616;42.140;24.760;2023-12-20T04:03:19;99821.28;;;4.51;67.57
52719;BME280;38616;42.140;24.760;2023-12-20T04:05:44;99812.63;;;4.37;67.54
52719;BME280;38616;42.140;24.760;2023-12-20T04:08:10;99820.47;;;4.39;68.00
52719;BME280;38616;42.140;24.760;2023-12-20T04:10:35;99810.84;;;4.67;67.72
52719;BME280;38616;42.140;24.760;2023-12-20T04:13:03;99799.94;;;4.85;66.20
52719;BME280;38616;42.140;24.760;2023-12-20T04:15:28;99798.63;;;4.88;65.57
52719;BME280;38616;42.140;24.760;2023-12-20T04:17:53;99805.91;;;4.87;65.52
52719;BME280;38616;42.140;24.760;2023-12-20T04:20:19;99808.16;;;4.79;65.72
52719;BME280;38616;42.140;24.760;2023-12-20T04:22:44;99805.53;;;4.96;65.49
52719;BME280;38616;42.140;24.760;2023-12-20T04:25:10;99805.66;;;5.01;64.82
52719;BME280;38616;42.140;24.760;2023-12-20T04:27:35;99803.94;;;4.83;64.90
52719;BME280;38616;42.140;24.760;2023-12-20T04:30:01;99806.63;;;4.71;65.60
52719;BME280;38616;42.140;24.760;2023-12-20T04:32:29;99800.44;;;4.70;66.21
52719;BME280;38616;42.140;24.760;2023-12-20T04:34:54;99801.28;;;4.59;66.27
52719;BME280;38616;42.140;24.760;2023-12-20T04:37:20;99796.00;;;4.64;66.07
52719;BME280;38616;42.140;24.760;2023-12-20T04:39:45;99797.75;;;4.58;66.25
52719;BME280;38616;42.140;24.760;2023-12-20T04:42:11;99796.22;;;4.63;66.28
52719;BME280;38616;42.140;24.760;2023-12-20T04:44:36;99788.03;;;4.69;66.20
52719;BME280;38616;42.140;24.760;2023-12-20T04:47:02;99783.34;;;4.65;65.93
52719;BME280;38616;42.140;24.760;2023-12-20T04:49:28;99770.16;;;4.63;66.02
52719;BME280;38616;42.140;24.760;2023-12-20T04:51:53;99776.44;;;4.81;65.85
52719;BME280;38616;42.140;24.760;2023-12-20T04:54:19;99775.59;;;4.80;65.24
52719;BME280;38616;42.140;24.760;2023-12-20T04:56:44;99774.00;;;4.67;65.72
52719;BME280;38616;42.140;24.760;2023-12-20T04:59:10;99778.34;;;4.44;65.68
52719;BME280;38616;42.140;24.760;2023-12-20T05:01:35;99779.63;;;4.54;66.08
52719;BME280;38616;42.140;24.760;2023-12-20T05:04:01;99778.44;;;4.62;65.36
52719;BME280;38616;42.140;24.760;2023-12-20T05:06:27;99770.25;;;4.56;65.28
52719;BME280;38616;42.140;24.760;2023-12-20T05:08:52;99772.03;;;4.51;65.69
52719;BME280;38616;42.140;24.760;2023-12-20T05:11:18;99770.16;;;4.51;66.07
52719;BME280;38616;42.140;24.760;2023-12-20T05:13:43;99771.00;;;4.28;65.91
52719;BME280;38616;42.140;24.760;2023-12-20T05:16:09;99763.34;;;4.61;66.08
52719;BME280;38616;42.140;24.760;2023-12-20T05:18:34;99764.75;;;4.75;65.00
52719;BME280;38616;42.140;24.760;2023-12-20T05:21:00;99761.03;;;4.64;65.04
52719;BME280;38616;42.140;24.760;2023-12-20T05:23:26;99753.69;;;4.36;65.05
52719;BME280;38616;42.140;24.760;2023-12-20T05:25:51;99754.75;;;4.11;66.71
52719;BME280;38616;42.140;24.760;2023-12-20T05:28:17;99761.97;;;4.10;67.17
52719;BME280;38616;42.140;24.760;2023-12-20T05:30:42;99755.22;;;4.32;67.00
52719;BME280;38616;42.140;24.760;2023-12-20T05:33:08;99752.25;;;4.45;66.25
52719;BME280;38616;42.140;24.760;2023-12-20T05:35:34;99754.16;;;4.21;66.67
52719;BME280;38616;42.140;24.760;2023-12-20T05:38:00;99745.03;;;4.10;67.00
52719;BME280;38616;42.140;24.760;2023-12-20T05:40:25;99738.09;;;3.66;68.52
52719;BME280;38616;42.140;24.760;2023-12-20T05:42:51;99738.72;;;3.80;69.15
52719;BME280;38616;42.140;24.760;2023-12-20T05:45:16;99736.97;;;3.86;68.23
52719;BME280;38616;42.140;24.760;2023-12-20T05:47:42;99738.13;;;4.02;67.34
52719;BME280;38616;42.140;24.760;2023-12-20T05:50:07;99727.84;;;3.99;67.81
52719;BME280;38616;42.140;24.760;2023-12-20T05:52:34;99737.22;;;3.96;67.27
52719;BME280;38616;42.140;24.760;2023-12-20T05:54:59;99738.03;;;4.09;67.70
52719;BME280;38616;42.140;24.760;2023-12-20T05:57:27;99730.31;;;4.12;67.26
52719;BME280;38616;42.140;24.760;2023-12-20T05:59:52;99724.22;;;4.29;66.70
52719;BME280;38616;42.140;24.760;2023-12-20T06:02:18;99730.06;;;4.38;66.02
52719;BME280;38616;42.140;24.760;2023-12-20T06:04:43;99730.78;;;3.97;67.32
52719;BME280;38616;42.140;24.760;2023-12-20T06:07:11;99732.31;;;4.17;66.95
52719;BME280;38616;42.140;24.760;2023-12-20T06:09:37;99717.81;;;3.82;67.87
52719;BME280;38616;42.140;24.760;2023-12-20T06:12:07;99721.75;;;3.68;68.09
52719;BME280;38616;42.140;24.760;2023-12-20T06:14:33;99728.06;;;3.74;68.36
52719;BME280;38616;42.140;24.760;2023-12-20T06:16:59;99722.84;;;4.03;67.61
52719;BME280;38616;42.140;24.760;2023-12-20T06:19:26;99716.16;;;4.17;67.10
52719;BME280;38616;42.140;24.760;2023-12-20T06:21:52;99728.69;;;4.23;66.95
52719;BME280;38616;42.140;24.760;2023-12-20T06:24:17;99724.31;;;4.34;66.70
52719;BME280;38616;42.140;24.760;2023-12-20T06:26:45;99721.09;;;4.20;67.17
52719;BME280;38616;42.140;24.760;2023-12-20T06:29:10;99720.00;;;4.09;66.96
52719;BME280;38616;42.140;24.760;2023-12-20T06:31:37;99712.75;;;4.22;66.84
52719;BME280;38616;42.140;24.760;2023-12-20T06:34:02;99714.88;;;4.08;67.34
52719;BME280;38616;42.140;24.760;2023-12-20T06:36:28;99706.81;;;4.08;67.37
52719;BME280;38616;42.140;24.760;2023-12-20T06:38:54;99715.22;;;4.11;67.12
52719;BME280;38616;42.140;24.760;2023-12-20T06:41:19;99731.94;;;4.13;67.00
52719;BME280;38616;42.140;24.760;2023-12-20T06:43:45;99729.13;;;4.08;66.96
52719;BME280;38616;42.140;24.760;2023-12-20T06:46:10;99727.38;;;4.26;66.07
52719;BME280;38616;42.140;24.760;2023-12-20T06:48:38;99724.81;;;4.19;66.50
52719;BME280;38616;42.140;24.760;2023-12-20T06:51:05;99718.03;;;4.05;66.29
52719;BME280;38616;42.140;24.760;2023-12-20T06:53:31;99720.59;;;4.11;66.69
52719;BME280;38616;42.140;24.760;2023-12-20T06:55:56;99712.19;;;4.20;66.44
52719;BME280;38616;42.140;24.760;2023-12-20T06:58:23;99705.53;;;4.10;66.85
52719;BME280;38616;42.140;24.760;2023-12-20T07:00:50;99704.59;;;4.28;66.37
52719;BME280;38616;42.140;24.760;2023-12-20T07:03:15;99705.75;;;4.21;66.82
52719;BME280;38616;42.140;24.760;2023-12-20T07:05:41;99712.66;;;4.05;67.13
52719;BME280;38616;42.140;24.760;2023-12-20T07:08:07;99701.91;;;4.28;67.25
52719;BME280;38616;42.140;24.760;2023-12-20T07:10:32;99702.78;;;4.46;66.95
52719;BME280;38616;42.140;24.760;2023-12-20T07:12:58;99699.69;;;4.25;67.09
52719;BME280;38616;42.140;24.760;2023-12-20T07:15:23;99702.00;;;4.34;67.22
52719;BME280;38616;42.140;24.760;2023-12-20T07:17:49;99709.69;;;4.54;67.32
52719;BME280;38616;42.140;24.760;2023-12-20T07:20:14;99694.69;;;4.58;66.53
52719;BME280;38616;42.140;24.760;2023-12-20T07:22:40;99697.41;;;4.46;66.24
52719;BME280;38616;42.140;24.760;2023-12-20T07:25:06;99697.97;;;4.60;66.83
52719;BME280;38616;42.140;24.760;2023-12-20T07:27:31;99686.00;;;4.68;65.96
52719;BME280;38616;42.140;24.760;2023-12-20T07:29:57;99682.72;;;4.78;65.86
52719;BME280;38616;42.140;24.760;2023-12-20T07:32:22;99678.81;;;4.85;65.95
52719;BME280;38616;42.140;24.760;2023-12-20T07:34:48;99670.59;;;4.63;66.36
52719;BME280;38616;42.140;24.760;2023-12-20T07:37:13;99672.72;;;4.49;67.25
52719;BME280;38616;42.140;24.760;2023-12-20T07:39:40;99676.00;;;4.80;66.67
52719;BME280;38616;42.140;24.760;2023-12-20T07:42:09;99679.66;;;4.74;66.33
52719;BME280;38616;42.140;24.760;2023-12-20T07:44:34;99676.22;;;4.91;66.16
52719;BME280;38616;42.140;24.760;2023-12-20T07:47:01;99686.53;;;5.11;65.37
52719;BME280;38616;42.140;24.760;2023-12-20T07:49:27;99679.72;;;4.62;66.10
52719;BME280;38616;42.140;24.760;2023-12-20T07:51:53;99673.59;;;4.67;66.61
52719;BME280;38616;42.140;24.760;2023-12-20T07:54:18;99672.16;;;5.05;65.45
52719;BME280;38616;42.140;24.760;2023-12-20T07:56:46;99669.75;;;5.21;65.13
52719;BME280;38616;42.140;24.760;2023-12-20T07:59:12;99655.06;;;5.28;64.45
52719;BME280;38616;42.140;24.760;2023-12-20T08:01:37;99658.25;;;5.25;63.88
52719;BME280;38616;42.140;24.760;2023-12-20T08:04:03;99652.84;;;5.42;64.22
52719;BME280;38616;42.140;24.760;2023-12-20T08:06:28;99657.91;;;5.56;63.52
52719;BME280;38616;42.140;24.760;2023-12-20T08:08:54;99655.88;;;5.63;63.18
52719;BME280;38616;42.140;24.760;2023-12-20T08:11:19;99652.19;;;5.69;62.62
52719;BME280;38616;42.140;24.760;2023-12-20T08:13:45;99657.09;;;5.72;62.29
52719;BME280;38616;42.140;24.760;2023-12-20T08:16:10;99655.34;;;5.83;62.03
52719;BME280;38616;42.140;24.760;2023-12-20T08:18:38;99648.66;;;6.03;62.04
52719;BME280;38616;42.140;24.760;2023-12-20T08:21:04;99640.34;;;6.04;61.26
52719;BME280;38616;42.140;24.760;2023-12-20T08:23:33;99639.50;;;6.26;60.89
52719;BME280;38616;42.140;24.760;2023-12-20T08:25:58;99641.41;;;6.03;60.78
52719;BME280;38616;42.140;24.760;2023-12-20T08:28:24;99641.78;;;6.12;61.65
52719;BME280;38616;42.140;24.760;2023-12-20T08:30:49;99633.44;;;6.36;60.89
52719;BME280;38616;42.140;24.760;2023-12-20T08:33:18;99632.94;;;6.39;60.96
52719;BME280;38616;42.140;24.760;2023-12-20T08:35:44;99625.72;;;6.45;60.50
52719;BME280;38616;42.140;24.760;2023-12-20T08:38:09;99614.47;;;6.53;60.07
52719;BME280;38616;42.140;24.760;2023-12-20T08:40:35;99620.03;;;6.69;60.34
52719;BME280;38616;42.140;24.760;2023-12-20T08:43:00;99608.34;;;6.63;60.12
52719;BME280;38616;42.140;24.760;2023-12-20T08:45:26;99602.78;;;6.70;60.31
52719;BME280;38616;42.140;24.760;2023-12-20T08:47:52;99599.50;;;6.40;60.32
52719;BME280;38616;42.140;24.760;2023-12-20T08:50:17;99598.66;;;6.40;60.50
52719;BME280;38616;42.140;24.760;2023-12-20T08:52:43;99595.34;;;6.55;60.84
52719;BME280;38616;42.140;24.760;2023-12-20T08:55:08;99582.25;;;6.69;59.90
52719;BME280;38616;42.140;24.760;2023-12-20T08:57:35;99581.00;;;6.82;60.20
52719;BME280;38616;42.140;24.760;2023-12-20T09:00:01;99576.00;;;6.68;60.53
52719;BME280;38616;42.140;24.760;2023-12-20T09:02:27;99572.63;;;6.78;60.78
52719;BME280;38616;42.140;24.760;2023-12-20T09:04:52;99563.44;;;6.79;61.15
52719;BME280;38616;42.140;24.760;2023-12-20T09:07:25;99561.91;;;6.88;60.84
52719;BME280;38616;42.140;24.760;2023-12-20T09:09:51;99560.78;;;6.84;61.02
52719;BME280;38616;42.140;24.760;2023-12-20T09:12:20;99558.13;;;6.89;61.43
52719;BME280;38616;42.140;24.760;2023-12-20T09:14:49;99540.91;;;6.95;61.02
52719;BME280;38616;42.140;24.760;2023-12-20T09:17:15;99536.34;;;7.01;60.24
52719;BME280;38616;42.140;24.760;2023-12-20T09:19:42;99532.34;;;7.04;60.56
52719;BME280;38616;42.140;24.760;2023-12-20T09:22:09;99531.06;;;7.17;58.88
52719;BME280;38616;42.140;24.760;2023-12-20T09:24:34;99525.66;;;7.17;59.76
52719;BME280;38616;42.140;24.760;2023-12-20T09:27:00;99511.44;;;7.32;58.76
52719;BME280;38616;42.140;24.760;2023-12-20T09:29:25;99517.72;;;7.43;58.55
52719;BME280;38616;42.140;24.760;2023-12-20T09:31:51;99516.34;;;7.40;58.12
52719;BME280;38616;42.140;24.760;2023-12-20T09:34:16;99514.16;;;7.37;57.93
52719;BME280;38616;42.140;24.760;2023-12-20T09:36:43;99506.81;;;7.27;58.90
52719;BME280;38616;42.140;24.760;2023-12-20T09:39:19;99501.22;;;7.39;58.72
52719;BME280;38616;42.140;24.760;2023-12-20T09:41:49;99489.91;;;7.47;59.02
52719;BME280;38616;42.140;24.760;2023-12-20T09:44:17;99479.72;;;7.65;58.53
52719;BME280;38616;42.140;24.760;2023-12-20T09:46:49;99480.22;;;7.57;58.66
52719;BME280;38616;42.140;24.760;2023-12-20T09:49:18;99477.78;;;7.55;58.70
52719;BME280;38616;42.140;24.760;2023-12-20T09:51:45;99460.78;;;7.65;58.59
52719;BME280;38616;42.140;24.760;2023-12-20T09:54:16;99454.56;;;7.64;58.46
52719;BME280;38616;42.140;24.760;2023-12-20T09:56:42;99465.16;;;7.71;58.49
52719;BME280;38616;42.140;24.760;2023-12-20T09:59:08;99455.91;;;7.62;58.68
52719;BME280;38616;42.140;24.760;2023-12-20T10:01:34;99451.31;;;7.62;58.47
52719;BME280;38616;42.140;24.760;2023-12-20T10:04:00;99450.72;;;7.45;58.02
52719;BME280;38616;42.140;24.760;2023-12-20T10:06:27;99446.72;;;7.58;58.79
52719;BME280;38616;42.140;24.760;2023-12-20T10:08:53;99437.59;;;7.79;58.19
52719;BME280;38616;42.140;24.760;2023-12-20T10:11:18;99430.59;;;7.99;57.08
52719;BME280;38616;42.140;24.760;2023-12-20T10:13:47;99429.25;;;7.91;56.95
52719;BME280;38616;42.140;24.760;2023-12-20T10:16:13;99424.63;;;7.81;56.80
52719;BME280;38616;42.140;24.760;2023-12-20T10:18:39;99424.91;;;7.95;56.59
52719;BME280;38616;42.140;24.760;2023-12-20T10:21:06;99418.97;;;7.93;55.98
52719;BME280;38616;42.140;24.760;2023-12-20T10:23:31;99416.53;;;8.02;56.72
52719;BME280;38616;42.140;24.760;2023-12-20T10:25:58;99415.78;;;8.22;56.12
52719;BME280;38616;42.140;24.760;2023-12-20T10:28:24;99409.28;;;8.28;55.26
52719;BME280;38616;42.140;24.760;2023-12-20T10:30:53;99405.22;;;8.36;54.85
52719;BME280;38616;42.140;24.760;2023-12-20T10:33:26;99403.88;;;8.34;54.83
52719;BME280;38616;42.140;24.760;2023-12-20T10:35:52;99396.56;;;8.24;54.58
52719;BME280;38616;42.140;24.760;2023-12-20T10:38:18;99394.38;;;8.26;54.51
52719;BME280;38616;42.140;24.760;2023-12-20T10:40:45;99384.66;;;8.30;54.30
52719;BME280;38616;42.140;24.760;2023-12-20T10:43:11;99385.19;;;8.27;54.49
52719;BME280;38616;42.140;24.760;2023-12-20T10:45:41;99370.31;;;8.35;54.24
52719;BME280;38616;42.140;24.760;2023-12-20T10:48:07;99367.88;;;8.28;54.47
52719;BME280;38616;42.140;24.760;2023-12-20T10:50:36;99357.31;;;8.37;54.21
52719;BME280;38616;42.140;24.760;2023-12-20T10:53:03;99344.63;;;8.53;54.18
52719;BME280;38616;42.140;24.760;2023-12-20T10:55:29;99343.22;;;8.66;53.72
52719;BME280;38616;42.140;24.760;2023-12-20T10:58:07;99345.13;;;8.81;52.72
52719;BME280;38616;42.140;24.760;2023-12-20T11:00:39;99344.53;;;8.89;52.96
52719;BME280;38616;42.140;24.760;2023-12-20T11:03:06;99338.00;;;8.95;52.34
52719;BME280;38616;42.140;24.760;2023-12-20T11:05:44;99329.03;;;9.10;52.10
52719;BME280;38616;42.140;24.760;2023-12-20T11:08:19;99324.31;;;9.37;51.61
52719;BME280;38616;42.140;24.760;2023-12-20T11:13:23;99304.47;;;9.41;51.20
52719;BME280;38616;42.140;24.760;2023-12-20T11:15:52;99307.13;;;9.52;50.71
52719;BME280;38616;42.140;24.760;2023-12-20T11:18:18;99304.41;;;9.52;50.81
52719;BME280;38616;42.140;24.760;2023-12-20T11:20:43;99299.53;;;9.54;50.95
52719;BME280;38616;42.140;24.760;2023-12-20T11:23:09;99298.19;;;9.51;50.87
52719;BME280;38616;42.140;24.760;2023-12-20T11:28:14;99296.00;;;9.53;50.33
52719;BME280;38616;42.140;24.760;2023-12-20T11:30:53;99283.56;;;9.52;50.11
52719;BME280;38616;42.140;24.760;2023-12-20T11:33:24;99275.38;;;9.57;50.06
52719;BME280;38616;42.140;24.760;2023-12-20T11:35:50;99274.63;;;9.46;50.44
52719;BME280;38616;42.140;24.760;2023-12-20T11:38:15;99273.34;;;9.34;50.93
52719;BME280;38616;42.140;24.760;2023-12-20T11:40:42;99271.13;;;9.46;50.68
52719;BME280;38616;42.140;24.760;2023-12-20T11:43:08;99261.84;;;9.52;50.74
52719;BME280;38616;42.140;24.760;2023-12-20T11:45:34;99260.41;;;9.65;50.42
52719;BME280;38616;42.140;24.760;2023-12-20T11:48:01;99255.31;;;9.58;50.51
52719;BME280;38616;42.140;24.760;2023-12-20T11:50:27;99252.13;;;9.46;50.89
52719;BME280;38616;42.140;24.760;2023-12-20T11:52:55;99245.28;;;9.54;51.06
52719;BME280;38616;42.140;24.760;2023-12-20T11:55:23;99241.00;;;9.48;51.62
52719;BME280;38616;42.140;24.760;2023-12-20T11:57:49;99236.28;;;9.64;51.16
52719;BME280;38616;42.140;24.760;2023-12-20T12:00:15;99227.03;;;9.70;51.16
52719;BME280;38616;42.140;24.760;2023-12-20T12:02:41;99225.06;;;9.75;50.68
52719;BME280;38616;42.140;24.760;2023-12-20T12:05:07;99226.16;;;9.74;50.67
52719;BME280;38616;42.140;24.760;2023-12-20T12:07:34;99219.38;;;9.72;51.24
52719;BME280;38616;42.140;24.760;2023-12-20T12:10:00;99211.31;;;9.67;51.41
52719;BME280;38616;42.140;24.760;2023-12-20T12:12:26;99212.19;;;9.57;51.46
52719;BME280;38616;42.140;24.760;2023-12-20T12:14:53;99211.69;;;9.50;52.22
52719;BME280;38616;42.140;24.760;2023-12-20T12:17:19;99206.22;;;9.55;52.61
52719;BME280;38616;42.140;24.760;2023-12-20T12:19:45;99207.53;;;9.63;52.91
52719;BME280;38616;42.140;24.760;2023-12-20T12:22:12;99190.22;;;9.58;53.58
52719;BME280;38616;42.140;24.760;2023-12-20T12:24:48;99198.44;;;9.48;54.86
52719;BME280;38616;42.140;24.760;2023-12-20T12:27:15;99191.38;;;9.47;55.68
52719;BME280;38616;42.140;24.760;2023-12-20T12:29:41;99191.22;;;9.28;56.40
52719;BME280;38616;42.140;24.760;2023-12-20T12:32:27;99189.31;;;9.34;56.65
52719;BME280;38616;42.140;24.760;2023-12-20T12:34:53;99191.69;;;9.40;56.52
52719;BME280;38616;42.140;24.760;2023-12-20T12:37:18;99197.94;;;9.41;56.20
52719;BME280;38616;42.140;24.760;2023-12-20T12:39:46;99183.28;;;9.42;56.50
52719;BME280;38616;42.140;24.760;2023-12-20T12:42:12;99180.88;;;9.35;56.92
52719;BME280;38616;42.140;24.760;2023-12-20T12:44:37;99180.84;;;9.40;56.76
52719;BME280;38616;42.140;24.760;2023-12-20T12:47:03;99170.25;;;9.44;57.03
52719;BME280;38616;42.140;24.760;2023-12-20T12:49:29;99165.38;;;9.46;56.63
52719;BME280;38616;42.140;24.760;2023-12-20T12:51:54;99165.41;;;9.41;56.44
52719;BME280;38616;42.140;24.760;2023-12-20T12:54:25;99167.06;;;9.37;56.75
52719;BME280;38616;42.140;24.760;2023-12-20T12:56:51;99159.94;;;9.46;56.77
52719;BME280;38616;42.140;24.760;2023-12-20T12:59:18;99159.78;;;9.67;56.51
52719;BME280;38616;42.140;24.760;2023-12-20T13:01:43;99160.00;;;9.70;56.12
52719;BME280;38616;42.140;24.760;2023-12-20T13:04:09;99164.38;;;9.66;56.34